createdAt,value
2018-10-07T00:01:37.303Z,19.90
2018-10-07T00:04:05.920Z,19.90
2018-10-07T00:06:34.721Z,19.70
2018-10-07T00:09:03.863Z,19.90
2018-10-07T00:11:32.460Z,20.10
2018-10-07T00:14:01.117Z,19.90
2018-10-07T00:16:29.843Z,19.70
2018-10-07T00:18:58.533Z,19.60
2018-10-07T00:21:27.145Z,19.50
2018-10-07T00:23:55.909Z,19.40
2018-10-07T00:26:24.521Z,19.30
2018-10-07T00:28:53.108Z,18.80
2018-10-07T00:31:21.681Z,18.90
2018-10-07T00:33:50.277Z,18.70
2018-10-07T00:36:18.833Z,18.40
2018-10-07T00:38:47.502Z,18.60
2018-10-07T00:41:16.168Z,18.60
2018-10-07T00:43:44.712Z,18.70
2018-10-07T00:46:13.420Z,18.40
2018-10-07T00:48:42.054Z,18.40
2018-10-07T00:51:10.957Z,18.10
2018-10-07T00:53:39.792Z,18.30
2018-10-07T00:56:08.443Z,18.40
2018-10-07T00:58:37.238Z,18.40
2018-10-07T01:01:05.861Z,18.20
2018-10-07T01:03:34.629Z,18.00
2018-10-07T01:06:04.360Z,18.40
2018-10-07T01:08:33.627Z,18.20
2018-10-07T01:11:02.290Z,18.10
2018-10-07T01:13:30.992Z,18.30
2018-10-07T01:15:59.675Z,18.40
2018-10-07T01:18:28.812Z,18.40
2018-10-07T01:20:57.474Z,18.30
2018-10-07T01:23:26.075Z,18.10
2018-10-07T01:25:54.784Z,18.10
2018-10-07T01:28:23.429Z,18.10
2018-10-07T01:30:52.144Z,18.50
2018-10-07T01:33:20.810Z,18.40
2018-10-07T01:35:49.433Z,18.40
2018-10-07T01:38:17.959Z,18.60
2018-10-07T01:40:46.565Z,18.20
2018-10-07T01:43:15.129Z,18.10
2018-10-07T01:45:43.725Z,18.10
2018-10-07T01:48:12.324Z,17.90
2018-10-07T01:50:40.875Z,17.80
2018-10-07T01:53:09.489Z,17.70
2018-10-07T01:55:38.151Z,17.70
2018-10-07T01:58:06.764Z,17.50
2018-10-07T02:00:35.366Z,17.60
2018-10-07T02:03:03.942Z,17.30
2018-10-07T02:05:32.520Z,17.40
2018-10-07T02:08:01.120Z,17.40
2018-10-07T02:10:29.721Z,17.50
2018-10-07T02:12:58.343Z,17.40
2018-10-07T02:15:27.229Z,17.30
2018-10-07T02:17:56.014Z,17.40
2018-10-07T02:20:24.536Z,17.40
2018-10-07T02:22:53.233Z,17.30
2018-10-07T02:25:21.801Z,17.40
2018-10-07T02:27:50.792Z,17.40
2018-10-07T02:30:19.525Z,17.60
2018-10-07T02:32:48.116Z,17.80
2018-10-07T02:35:16.705Z,17.50
2018-10-07T02:37:45.359Z,17.90
2018-10-07T02:40:14.000Z,17.70
2018-10-07T02:42:42.612Z,17.80
2018-10-07T02:45:11.282Z,17.50
2018-10-07T02:47:39.841Z,17.50
2018-10-07T02:50:14.948Z,17.60
2018-10-07T02:52:47.735Z,17.60
2018-10-07T02:55:19.347Z,17.50
2018-10-07T02:57:48.540Z,17.70
2018-10-07T03:00:17.680Z,17.70
2018-10-07T03:02:46.359Z,17.70
2018-10-07T03:05:14.944Z,17.40
2018-10-07T03:07:43.751Z,17.40
2018-10-07T03:10:12.853Z,17.50
2018-10-07T03:12:41.815Z,17.50
2018-10-07T03:15:10.639Z,17.30
2018-10-07T03:17:39.245Z,17.30
2018-10-07T03:20:08.265Z,17.20
2018-10-07T03:22:37.070Z,17.40
2018-10-07T03:25:06.193Z,17.40
2018-10-07T03:27:34.966Z,17.40
2018-10-07T03:30:03.807Z,17.50
2018-10-07T03:32:32.404Z,17.20
2018-10-07T03:35:01.334Z,17.30
2018-10-07T03:37:29.928Z,17.00
2018-10-07T03:39:58.521Z,16.90
2018-10-07T03:42:27.097Z,17.20
2018-10-07T03:44:55.708Z,16.90
2018-10-07T03:47:24.404Z,17.10
2018-10-07T03:49:54.041Z,16.70
2018-10-07T03:52:22.750Z,16.90
2018-10-07T03:54:51.510Z,16.90
2018-10-07T03:57:20.417Z,16.80
2018-10-07T03:59:49.115Z,16.60
2018-10-07T04:02:17.824Z,16.50
2018-10-07T04:04:46.448Z,16.30
2018-10-07T04:07:15.764Z,16.40
2018-10-07T04:09:44.440Z,16.30
2018-10-07T04:12:13.094Z,16.00
2018-10-07T04:14:41.667Z,15.90
2018-10-07T04:17:10.298Z,15.80
2018-10-07T04:19:38.888Z,15.80
2018-10-07T04:22:07.624Z,15.80
2018-10-07T04:24:36.585Z,15.70
2018-10-07T04:27:05.919Z,15.70
2018-10-07T04:29:34.516Z,15.80
2018-10-07T04:32:03.319Z,15.50
2018-10-07T04:34:32.001Z,15.50
2018-10-07T04:37:00.616Z,15.50
2018-10-07T04:39:29.295Z,15.50
2018-10-07T04:41:57.965Z,15.40
2018-10-07T04:44:26.578Z,15.20
2018-10-07T04:46:55.227Z,15.20
2018-10-07T04:49:23.865Z,15.20
2018-10-07T04:51:52.444Z,15.20
2018-10-07T04:54:21.047Z,15.10
2018-10-07T04:56:49.849Z,14.90
2018-10-07T04:59:18.496Z,15.10
2018-10-07T05:01:47.110Z,14.80
2018-10-07T05:04:16.955Z,15.00
2018-10-07T05:06:45.636Z,15.10
2018-10-07T05:09:14.359Z,14.70
2018-10-07T05:11:45.041Z,14.80
2018-10-07T05:14:13.691Z,14.50
2018-10-07T05:16:47.608Z,14.70
2018-10-07T05:19:16.684Z,14.40
2018-10-07T05:21:45.578Z,14.80
2018-10-07T05:24:14.295Z,14.80
2018-10-07T05:26:42.945Z,14.60
2018-10-07T05:29:11.677Z,14.50
2018-10-07T05:31:40.312Z,14.60
2018-10-07T05:34:09.164Z,14.60
2018-10-07T05:36:37.819Z,14.30
2018-10-07T05:39:08.501Z,14.40
2018-10-07T05:41:37.247Z,14.50
2018-10-07T05:44:06.095Z,14.50
2018-10-07T05:46:34.859Z,14.40
2018-10-07T05:49:03.757Z,14.90
2018-10-07T05:51:32.515Z,14.60
2018-10-07T05:54:01.229Z,14.50
2018-10-07T05:56:30.132Z,14.60
2018-10-07T05:58:59.136Z,14.50
2018-10-07T06:01:29.531Z,14.40
2018-10-07T06:04:32.068Z,14.50
2018-10-07T06:07:02.116Z,14.30
2018-10-07T06:09:33.593Z,14.50
2018-10-07T06:12:02.349Z,14.10
2018-10-07T06:14:42.069Z,14.30
2018-10-07T06:17:10.613Z,14.10
2018-10-07T06:19:40.229Z,14.00
2018-10-07T06:22:08.787Z,14.00
2018-10-07T06:24:37.363Z,14.00
2018-10-07T06:27:06.592Z,14.10
2018-10-07T06:29:35.138Z,13.80
2018-10-07T06:32:03.755Z,13.90
2018-10-07T06:34:32.940Z,13.60
2018-10-07T06:37:01.580Z,13.70
2018-10-07T06:39:30.929Z,13.50
2018-10-07T06:42:00.813Z,13.80
2018-10-07T06:44:29.329Z,13.80
2018-10-07T06:46:57.929Z,13.80
2018-10-07T06:49:26.450Z,13.80
2018-10-07T06:51:55.141Z,13.50
2018-10-07T06:54:23.715Z,13.60
2018-10-07T06:56:52.316Z,13.80
2018-10-07T06:59:20.905Z,13.70
2018-10-07T07:01:49.560Z,13.90
2018-10-07T07:04:18.387Z,13.80
2018-10-07T07:06:46.916Z,13.80
2018-10-07T07:09:15.565Z,13.90
2018-10-07T07:11:44.252Z,14.20
2018-10-07T07:14:12.800Z,14.10
2018-10-07T07:16:41.533Z,13.80
2018-10-07T07:19:10.185Z,14.10
2018-10-07T07:21:38.914Z,14.20
2018-10-07T07:24:07.601Z,13.90
2018-10-07T07:26:36.340Z,14.10
2018-10-07T07:29:04.892Z,14.10
2018-10-07T07:31:33.560Z,14.10
2018-10-07T07:34:02.642Z,14.20
2018-10-07T07:36:31.178Z,14.40
2018-10-07T07:38:59.954Z,14.40
2018-10-07T07:41:28.653Z,14.30
2018-10-07T07:43:57.425Z,14.40
2018-10-07T07:46:26.203Z,14.30
2018-10-07T07:48:54.818Z,14.40
2018-10-07T07:51:23.425Z,14.30
2018-10-07T07:53:52.102Z,14.60
2018-10-07T07:56:20.810Z,14.40
2018-10-07T07:58:49.754Z,14.30
2018-10-07T08:01:18.426Z,14.50
2018-10-07T08:03:47.012Z,14.70
2018-10-07T08:06:15.639Z,14.70
2018-10-07T08:08:44.569Z,14.80
2018-10-07T08:11:13.231Z,14.70
2018-10-07T08:13:41.879Z,14.70
2018-10-07T08:16:10.508Z,15.00
2018-10-07T08:18:39.313Z,15.10
2018-10-07T08:21:07.997Z,15.00
2018-10-07T08:23:36.714Z,15.00
2018-10-07T08:26:05.393Z,14.80
2018-10-07T08:28:34.243Z,14.80
2018-10-07T08:31:02.770Z,15.00
2018-10-07T08:33:31.443Z,15.00
2018-10-07T08:36:00.132Z,15.00
2018-10-07T08:38:28.766Z,14.90
2018-10-07T08:40:57.515Z,15.10
2018-10-07T08:43:26.312Z,15.30
2018-10-07T08:45:55.635Z,15.30
2018-10-07T08:48:24.366Z,15.30
2018-10-07T08:50:53.189Z,15.20
2018-10-07T08:53:22.050Z,15.10
2018-10-07T08:55:50.713Z,15.20
2018-10-07T08:58:19.890Z,14.90
2018-10-07T09:00:48.569Z,15.50
2018-10-07T09:03:17.199Z,15.40
2018-10-07T09:05:46.150Z,15.50
2018-10-07T09:08:15.043Z,15.40
2018-10-07T09:10:44.079Z,15.60
2018-10-07T09:13:12.675Z,15.80
2018-10-07T09:15:41.431Z,15.80
2018-10-07T09:18:10.123Z,15.80
2018-10-07T09:20:38.875Z,15.90
2018-10-07T09:23:07.802Z,15.60
2018-10-07T09:25:36.487Z,15.70
2018-10-07T09:28:05.281Z,15.40
2018-10-07T09:30:35.667Z,15.30
2018-10-07T09:33:04.320Z,15.70
2018-10-07T09:35:33.244Z,15.80
2018-10-07T09:38:01.995Z,15.90
2018-10-07T09:40:30.616Z,15.70
2018-10-07T09:42:59.459Z,15.70
2018-10-07T09:45:28.092Z,15.90
2018-10-07T09:47:57.034Z,15.90
2018-10-07T09:50:25.849Z,15.60
2018-10-07T09:52:54.539Z,15.50
2018-10-07T09:55:23.350Z,15.60
2018-10-07T09:57:53.029Z,15.70
2018-10-07T10:00:26.956Z,15.80
2018-10-07T10:02:55.675Z,15.80
2018-10-07T10:05:24.436Z,15.60
2018-10-07T10:07:53.165Z,15.30
2018-10-07T10:10:21.926Z,15.20
2018-10-07T10:12:50.693Z,15.70
2018-10-07T10:15:19.424Z,15.30
2018-10-07T10:17:51.451Z,15.40
2018-10-07T10:20:24.476Z,15.70
2018-10-07T10:23:07.554Z,15.70
2018-10-07T10:25:51.203Z,15.90
2018-10-07T10:28:30.696Z,15.70
2018-10-07T10:31:10.232Z,15.70
2018-10-07T10:33:46.925Z,16.20
2018-10-07T10:36:26.256Z,15.90
2018-10-07T10:39:03.309Z,16.20
2018-10-07T10:41:35.969Z,16.10
2018-10-07T10:44:17.339Z,16.10
2018-10-07T10:46:55.480Z,16.20
2018-10-07T10:49:26.366Z,16.10
2018-10-07T10:52:09.354Z,15.70
2018-10-07T10:54:45.113Z,15.80
2018-10-07T10:57:17.906Z,15.70
2018-10-07T11:00:22.002Z,16.30
2018-10-07T11:03:12.577Z,16.50
2018-10-07T11:06:52.426Z,16.30
2018-10-07T11:11:40.703Z,16.20
2018-10-07T11:15:18.496Z,16.30
2018-10-07T11:18:02.701Z,15.80
2018-10-07T11:23:49.427Z,15.90
2018-10-07T11:26:22.560Z,15.80
2018-10-07T11:29:01.567Z,15.80
2018-10-07T11:31:50.409Z,15.80
2018-10-07T11:34:33.141Z,16.50
2018-10-07T11:37:13.433Z,16.60
2018-10-07T11:40:56.952Z,16.50
2018-10-07T11:43:32.728Z,16.00
2018-10-07T11:46:09.135Z,16.20
2018-10-07T11:48:56.121Z,15.80
2018-10-07T11:51:38.114Z,16.40
2018-10-07T11:54:11.866Z,16.50
2018-10-07T11:56:43.968Z,16.20
2018-10-07T11:59:12.681Z,16.20
2018-10-07T12:01:41.620Z,16.40
2018-10-07T12:04:10.432Z,16.50
2018-10-07T12:06:39.171Z,16.60
2018-10-07T12:09:07.820Z,16.50
2018-10-07T12:11:36.634Z,16.20
2018-10-07T12:14:05.479Z,16.30
2018-10-07T12:16:34.677Z,16.30
2018-10-07T12:19:03.414Z,16.60
2018-10-07T12:21:32.398Z,16.80
2018-10-07T12:24:01.421Z,16.90
2018-10-07T12:26:30.243Z,17.00
2018-10-07T12:28:58.983Z,17.00
2018-10-07T12:31:27.634Z,17.00
2018-10-07T12:33:56.328Z,16.90
2018-10-07T12:36:25.014Z,17.00
2018-10-07T12:38:53.677Z,16.80
2018-10-07T12:41:22.394Z,17.20
2018-10-07T12:43:51.069Z,17.20
2018-10-07T12:46:19.700Z,17.20
2018-10-07T12:48:48.449Z,17.50
2018-10-07T12:51:17.258Z,17.20
2018-10-07T12:53:45.962Z,17.20
2018-10-07T12:56:14.592Z,17.40
2018-10-07T12:58:43.195Z,17.40
2018-10-07T13:01:12.011Z,17.40
2018-10-07T13:03:40.676Z,17.20
2018-10-07T13:06:09.406Z,17.50
2018-10-07T13:08:40.036Z,17.60
2018-10-07T13:11:08.816Z,17.30
2018-10-07T13:13:37.497Z,17.40
2018-10-07T13:16:06.104Z,17.30
2018-10-07T13:18:34.793Z,17.20
2018-10-07T13:21:03.473Z,17.20
2018-10-07T13:23:33.056Z,17.30
2018-10-07T13:26:01.707Z,17.30
2018-10-07T13:28:30.456Z,17.20
2018-10-07T13:30:59.248Z,17.30
2018-10-07T13:33:27.922Z,17.50
2018-10-07T13:35:56.609Z,17.70
2018-10-07T13:38:25.288Z,17.80
2018-10-07T13:40:53.867Z,17.90
2018-10-07T13:43:22.542Z,17.90
2018-10-07T13:45:51.569Z,18.00
2018-10-07T13:48:20.216Z,18.00
2018-10-07T13:50:48.830Z,18.00
2018-10-07T13:53:17.602Z,18.30
2018-10-07T13:55:46.299Z,18.20
2018-10-07T13:58:15.157Z,18.40
2018-10-07T14:00:43.693Z,18.30
2018-10-07T14:03:12.257Z,18.10
2018-10-07T14:05:40.765Z,18.40
2018-10-07T14:08:09.332Z,18.40
2018-10-07T14:10:37.900Z,18.10
2018-10-07T14:13:06.489Z,17.90
2018-10-07T14:15:35.136Z,18.20
2018-10-07T14:18:03.709Z,18.10
2018-10-07T14:20:32.278Z,18.10
2018-10-07T14:23:00.817Z,18.30
2018-10-07T14:25:29.457Z,18.20
2018-10-07T14:27:58.208Z,18.10
2018-10-07T14:30:26.790Z,18.60
2018-10-07T14:32:55.914Z,18.10
2018-10-07T14:35:24.600Z,18.40
2018-10-07T14:37:53.230Z,18.20
2018-10-07T14:40:21.807Z,18.00
2018-10-07T14:42:50.367Z,18.10
2018-10-07T14:45:18.920Z,17.60
2018-10-07T14:47:47.480Z,17.80
2018-10-07T14:50:16.220Z,17.70
2018-10-07T14:52:45.350Z,17.50
2018-10-07T14:55:14.160Z,17.40
2018-10-07T14:57:42.673Z,17.50
2018-10-07T15:00:11.307Z,17.50
2018-10-07T15:02:40.095Z,17.60
2018-10-07T15:05:08.640Z,17.80
2018-10-07T15:07:37.236Z,17.90
2018-10-07T15:10:06.056Z,17.90
2018-10-07T15:12:35.933Z,18.00
2018-10-07T15:15:04.849Z,17.90
2018-10-07T15:17:33.480Z,18.00
2018-10-07T15:20:02.080Z,18.10
2018-10-07T15:22:30.734Z,17.80
2018-10-07T15:24:59.249Z,18.00
2018-10-07T15:27:27.849Z,17.80
2018-10-07T15:29:56.526Z,17.70
2018-10-07T15:32:25.084Z,17.70
2018-10-07T15:34:53.621Z,17.30
2018-10-07T15:37:22.661Z,17.50
2018-10-07T15:39:51.263Z,17.50
2018-10-07T15:42:19.861Z,17.60
2018-10-07T15:44:48.479Z,17.40
2018-10-07T15:47:17.121Z,17.20
2018-10-07T15:49:45.672Z,17.00
2018-10-07T15:52:14.214Z,17.10
2018-10-07T15:54:42.761Z,17.20
2018-10-07T15:57:11.352Z,17.40
2018-10-07T15:59:40.228Z,17.00
2018-10-07T16:02:09.828Z,17.20
2018-10-07T16:04:38.411Z,16.90
2018-10-07T16:07:06.943Z,16.80
2018-10-07T16:09:35.639Z,17.10
2018-10-07T16:12:04.292Z,17.10
2018-10-07T16:14:33.042Z,16.90
2018-10-07T16:17:01.783Z,17.00
2018-10-07T16:19:30.502Z,17.20
2018-10-07T16:21:59.140Z,17.10
2018-10-07T16:24:27.869Z,17.10
2018-10-07T16:26:56.395Z,17.20
2018-10-07T16:29:25.685Z,17.10
2018-10-07T16:31:54.433Z,17.30
2018-10-07T16:34:23.102Z,17.40
2018-10-07T16:36:52.671Z,17.30
2018-10-07T16:39:21.585Z,17.40
2018-10-07T16:41:50.819Z,17.30
2018-10-07T16:44:19.459Z,17.60
2018-10-07T16:46:48.040Z,17.50
2018-10-07T16:49:16.836Z,17.40
2018-10-07T16:51:45.378Z,17.70
2018-10-07T16:54:13.960Z,17.70
2018-10-07T16:56:42.775Z,17.60
2018-10-07T17:00:14.691Z,17.60
2018-10-07T17:02:43.428Z,17.50
2018-10-07T17:05:12.016Z,17.10
2018-10-07T17:07:40.832Z,17.40
2018-10-07T17:10:09.517Z,17.30
2018-10-07T17:12:38.047Z,17.20
2018-10-07T17:15:06.905Z,17.40
2018-10-07T17:17:35.488Z,17.50
2018-10-07T17:20:05.212Z,17.30
2018-10-07T17:22:33.952Z,17.40
2018-10-07T17:25:02.501Z,17.50
2018-10-07T17:27:31.150Z,17.50
2018-10-07T17:29:59.740Z,17.70
2018-10-07T17:32:28.626Z,17.50
2018-10-07T17:34:57.159Z,17.40
2018-10-07T17:37:25.825Z,17.50
2018-10-07T17:39:54.428Z,17.70
2018-10-07T17:42:24.180Z,17.60
2018-10-07T17:44:52.754Z,17.70
2018-10-07T17:47:21.285Z,17.60
2018-10-07T17:49:49.857Z,17.60
2018-10-07T17:52:19.026Z,17.60
2018-10-07T17:54:47.818Z,17.40
2018-10-07T17:57:16.478Z,17.40
2018-10-07T17:59:45.381Z,17.40
2018-10-07T18:02:14.037Z,17.10
2018-10-07T18:04:43.143Z,16.90
2018-10-07T18:07:11.848Z,17.00
2018-10-07T18:09:40.402Z,17.00
2018-10-07T18:12:09.020Z,17.00
2018-10-07T18:14:37.690Z,17.10
2018-10-07T18:17:06.373Z,16.70
2018-10-07T18:19:34.994Z,17.00
2018-10-07T18:22:03.844Z,17.10
2018-10-07T18:24:32.416Z,17.00
2018-10-07T18:27:01.291Z,17.00
2018-10-07T18:29:29.993Z,16.80
2018-10-07T18:31:59.646Z,16.90
2018-10-07T18:34:28.773Z,16.50
2018-10-07T18:36:57.249Z,16.60
2018-10-07T18:39:26.121Z,16.40
2018-10-07T18:41:54.826Z,16.70
2018-10-07T18:44:23.686Z,16.60
2018-10-07T18:46:52.311Z,16.90
2018-10-07T18:49:21.140Z,16.50
2018-10-07T18:51:49.723Z,16.80
2018-10-07T18:54:18.329Z,16.80
2018-10-07T18:56:47.155Z,16.80
2018-10-07T18:59:15.825Z,16.60
2018-10-07T19:01:44.452Z,16.70
2018-10-07T19:04:13.202Z,16.40
2018-10-07T19:06:41.863Z,16.60
2018-10-07T19:09:11.678Z,16.60
2018-10-07T19:11:40.472Z,16.50
2018-10-07T19:14:09.124Z,16.50
2018-10-07T19:16:37.951Z,16.70
2018-10-07T19:19:06.702Z,16.50
2018-10-07T19:21:35.249Z,16.60
2018-10-07T19:24:04.127Z,16.40
2018-10-07T19:26:33.825Z,16.30
2018-10-07T19:29:02.897Z,16.40
2018-10-07T19:31:32.299Z,16.50
2018-10-07T19:34:00.942Z,16.30
2018-10-07T19:36:29.642Z,16.50
2018-10-07T19:38:58.270Z,16.30
2018-10-07T19:41:26.899Z,16.40
2018-10-07T19:43:55.550Z,16.40
2018-10-07T19:46:24.845Z,16.10
2018-10-07T19:48:53.627Z,16.30
2018-10-07T19:51:23.928Z,16.20
2018-10-07T19:53:52.827Z,16.30
2018-10-07T19:56:21.867Z,16.10
2018-10-07T19:58:50.664Z,16.10
2018-10-07T20:01:20.033Z,15.90
2018-10-07T20:03:48.638Z,16.10
2018-10-07T20:06:17.359Z,16.00
2018-10-07T20:08:46.549Z,15.80
2018-10-07T20:11:15.365Z,16.10
2018-10-07T20:13:43.988Z,15.60
2018-10-07T20:16:13.003Z,15.50
2018-10-07T20:18:41.764Z,15.40
2018-10-07T20:21:11.431Z,15.20
2018-10-07T20:23:40.243Z,15.40
2018-10-07T20:26:08.986Z,15.60
2018-10-07T20:28:38.242Z,15.40
2018-10-07T20:31:08.031Z,15.50
2018-10-07T20:33:36.716Z,15.70
2018-10-07T20:36:07.248Z,15.40
2018-10-07T20:38:36.247Z,15.50
2018-10-07T20:41:05.363Z,15.50
2018-10-07T20:43:34.245Z,15.30
2018-10-07T20:46:02.987Z,15.40
2018-10-07T20:48:31.910Z,15.30
2018-10-07T20:51:00.591Z,15.30
2018-10-07T20:53:29.177Z,15.10
2018-10-07T20:55:58.126Z,15.10
2018-10-07T20:58:26.777Z,15.10
2018-10-07T21:00:55.657Z,15.20
2018-10-07T21:03:24.301Z,15.40
2018-10-07T21:05:54.192Z,15.20
2018-10-07T21:08:23.017Z,15.00
2018-10-07T21:10:51.704Z,15.20
2018-10-07T21:13:20.480Z,15.00
2018-10-07T21:15:49.567Z,15.20
2018-10-07T21:18:18.328Z,15.30
2018-10-07T21:20:46.897Z,15.20
2018-10-07T21:23:15.631Z,15.30
2018-10-07T21:25:44.196Z,15.10
2018-10-07T21:28:12.783Z,15.10
2018-10-07T21:30:41.361Z,15.10
2018-10-07T21:33:10.464Z,14.80
2018-10-07T21:35:39.184Z,14.80
2018-10-07T21:38:08.074Z,14.90
2018-10-07T21:40:36.759Z,14.90
2018-10-07T21:43:05.369Z,14.70
2018-10-07T21:45:34.048Z,14.80
2018-10-07T21:48:02.802Z,14.70
2018-10-07T21:50:31.492Z,14.30
2018-10-07T21:53:00.157Z,14.50
2018-10-07T21:55:28.857Z,14.30
2018-10-07T21:57:57.504Z,14.40
2018-10-07T22:00:26.185Z,14.40
2018-10-07T22:02:55.470Z,14.40
2018-10-07T22:05:24.173Z,14.40
2018-10-07T22:07:52.809Z,14.10
2018-10-07T22:10:21.665Z,14.20
2018-10-07T22:12:50.548Z,14.40
2018-10-07T22:15:19.821Z,14.20
2018-10-07T22:17:48.397Z,14.10
2018-10-07T22:20:17.556Z,14.20
2018-10-07T22:22:46.267Z,14.10
2018-10-07T22:25:14.943Z,13.70
2018-10-07T22:27:43.670Z,13.70
2018-10-07T22:30:12.383Z,13.90
2018-10-07T22:32:40.973Z,13.60
2018-10-07T22:35:09.614Z,13.70
2018-10-07T22:37:38.472Z,13.50
2018-10-07T22:40:07.188Z,13.80
2018-10-07T22:42:36.014Z,13.30
2018-10-07T22:45:04.935Z,13.50
2018-10-07T22:47:33.511Z,13.60
2018-10-07T22:50:02.193Z,13.30
2018-10-07T22:52:30.999Z,13.40
2018-10-07T22:54:59.778Z,13.40
2018-10-07T22:57:28.325Z,13.30
2018-10-07T22:59:57.109Z,13.20
2018-10-07T23:02:25.728Z,13.00
2018-10-07T23:04:54.601Z,13.10
2018-10-07T23:07:23.240Z,13.00
2018-10-07T23:09:51.879Z,12.90
2018-10-07T23:12:20.700Z,13.20
2018-10-07T23:14:49.268Z,13.00
2018-10-07T23:17:17.927Z,13.20
2018-10-07T23:19:46.502Z,12.90
2018-10-07T23:22:15.074Z,12.90
2018-10-07T23:24:43.702Z,12.80
2018-10-07T23:27:12.344Z,12.70
2018-10-07T23:29:41.021Z,12.60
2018-10-07T23:32:09.688Z,12.60
2018-10-07T23:34:38.292Z,12.70
2018-10-07T23:37:07.142Z,13.00
2018-10-07T23:39:35.766Z,12.60
2018-10-07T23:42:05.416Z,12.60
2018-10-07T23:44:34.208Z,12.60
2018-10-07T23:47:02.961Z,12.60
2018-10-07T23:49:31.568Z,12.60
2018-10-07T23:52:00.982Z,12.50
2018-10-07T23:54:29.554Z,12.40
2018-10-07T23:56:58.209Z,12.60
2018-10-07T23:59:26.860Z,12.60
